Goldens Bridge, New York
Current Conditions -  °F | °C
As of 5:53 PM on Monday 22 Dec 2014 (Local Time) from KDXR Reporting Station
Overcast Overcast  
Wind Chill:   Ceiling: 1500
Heat Index:   Visibility: 10mi
Dew Point:   Wind: 6mph
Humidity: 77%   Direction: 60°ENE
Pressure: 30.24"   Gusts: NA
Location:  41.29°N, 73.68°W
Report Text: KDXR 222253Z 06005KT 10SM OVC015 04/01 A3024 RMK AO2 SLP244 T00440006
Loading
Personal Weather Stations






























Interactive Weather Map New forecast layout! Learn more

10-Day Weather Forecast

Advertisements
Track Severe Weather on mobile